createdAt,value
2023-01-29T00:07:06.269Z,97.3
2023-01-29T00:27:06.132Z,97.1
2023-01-29T00:47:06.175Z,97.2
2023-01-29T01:07:06.112Z,97.5
2023-01-29T01:27:06.101Z,97.9
2023-01-29T01:47:06.094Z,97.8
2023-01-29T02:07:06.084Z,97.6
2023-01-29T02:27:06.129Z,98.0
2023-01-29T02:47:06.108Z,97.0
2023-01-29T03:27:06.077Z,97.8
2023-01-29T03:47:06.088Z,98.3
2023-01-29T04:07:06.073Z,97.7
2023-01-29T04:27:06.062Z,97.4
2023-01-29T04:47:06.066Z,97.4
2023-01-29T05:07:06.111Z,97.1
2023-01-29T05:27:06.029Z,97.2
2023-01-29T05:47:06.057Z,97.2
2023-01-29T06:07:06.056Z,97.4
2023-01-29T06:27:06.053Z,97.2
2023-01-29T06:47:06.036Z,98.0
2023-01-29T07:07:06.026Z,98.3
2023-01-29T07:27:06.074Z,97.5
2023-01-29T07:47:06.018Z,95.6
2023-01-29T08:07:06.009Z,97.5
2023-01-29T08:27:06.152Z,98.3
2023-01-29T08:47:06.147Z,97.1
2023-01-29T09:07:06.113Z,97.1
2023-01-29T09:27:05.988Z,96.1
2023-01-29T09:47:06.206Z,96.0
2023-01-29T10:07:06.109Z,96.0
2023-01-29T10:27:06.000Z,96.9
2023-01-29T10:47:06.032Z,95.6
2023-01-29T11:07:06.155Z,95.9
2023-01-29T11:27:06.150Z,94.7
2023-01-29T11:47:06.128Z,96.2
2023-01-29T12:07:06.217Z,96.1
2023-01-29T12:27:06.089Z,96.3
2023-01-29T12:47:05.971Z,96.3
2023-01-29T13:07:05.958Z,96.3
2023-01-29T13:27:06.091Z,96.5
2023-01-29T13:47:06.132Z,96.9
2023-01-29T14:07:06.133Z,96.2
2023-01-29T14:27:06.121Z,96.7
2023-01-29T14:47:06.061Z,96.3
2023-01-29T15:07:06.032Z,96.4
2023-01-29T15:27:05.957Z,95.5
2023-01-29T15:47:05.930Z,95.6
2023-01-29T16:07:05.996Z,94.6
2023-01-29T16:27:06.054Z,96.2
2023-01-29T16:47:06.045Z,96.0
2023-01-29T17:07:06.074Z,96.4
2023-01-29T17:27:05.991Z,96.1
2023-01-29T17:47:05.896Z,94.8
2023-01-29T18:07:06.026Z,95.2
2023-01-29T18:27:05.942Z,96.0
2023-01-29T18:47:06.069Z,95.9
2023-01-29T19:07:05.957Z,96.0
2023-01-29T19:27:05.874Z,95.8
2023-01-29T19:47:05.996Z,95.4
2023-01-29T20:07:05.977Z,95.0
2023-01-29T20:27:06.005Z,94.2
2023-01-29T20:47:05.861Z,95.1
2023-01-29T21:07:05.865Z,95.7
2023-01-29T21:27:05.845Z,95.7
2023-01-29T21:47:05.861Z,96.7
2023-01-29T22:07:05.857Z,95.4
2023-01-29T22:27:05.870Z,95.5
2023-01-29T22:47:05.866Z,95.1
2023-01-29T23:07:05.886Z,95.0
2023-01-29T23:27:05.879Z,96.2
2023-01-29T23:47:05.848Z,96.0
